Time;durP1;ratioP1;P1;durP2;ratioP2;P2;SDS_P1;SDS_P2;PMS_P1;PMS_P2;Temp;Humidity;BMP_temperature;BMP_pressure;BME280_temperature;BME280_humidity;BME280_pressure;Samples;Min_cycle;Max_cycle;Signal;HPM_P1;HPM_P2
2024/04/12 00:01:10;;;;;;;11.27;4.90;;;10.10;99.90;;;;;;5388028;26;19995;-79
2024/04/12 00:03:39;;;;;;;8.30;4.72;;;10.00;99.90;;;;;;5390820;26;20031;-78
2024/04/12 00:06:14;;;;;;;13.75;5.22;;;10.00;99.90;;;;;;5395262;26;20010;-78
2024/04/12 00:08:40;;;;;;;11.00;4.70;;;10.10;99.90;;;;;;5386600;26;21304;-79
2024/04/12 00:11:07;;;;;;;13.25;5.35;;;10.10;99.90;;;;;;5394508;26;20452;-79
2024/04/12 00:13:40;;;;;;;10.75;5.07;;;9.90;99.90;;;;;;5393708;26;20001;-79
2024/04/12 00:16:08;;;;;;;9.48;4.95;;;9.80;99.90;;;;;;5389206;26;20000;-79
2024/04/12 00:18:35;;;;;;;8.10;4.50;;;9.80;99.90;;;;;;5391980;26;20716;-79
2024/04/12 00:21:01;;;;;;;8.00;4.70;;;9.90;99.90;;;;;;5425465;26;20000;-79
2024/04/12 00:23:30;;;;;;;10.98;4.57;;;9.80;99.90;;;;;;5415750;26;20338;-78
2024/04/12 00:25:59;;;;;;;12.68;5.70;;;9.90;99.90;;;;;;5394136;26;20441;-79
2024/04/12 00:28:36;;;;;;;20.03;7.13;;;9.80;99.90;;;;;;5393618;26;20340;-78
2024/04/12 00:31:06;;;;;;;15.45;6.15;;;9.80;99.90;;;;;;5390770;26;20238;-79
2024/04/12 00:33:33;;;;;;;10.60;5.13;;;9.70;99.90;;;;;;5391442;26;20000;-79
2024/04/12 00:36:12;;;;;;;8.85;5.22;;;9.80;99.90;;;;;;5421403;26;19999;-79
2024/04/12 00:38:41;;;;;;;13.23;5.95;;;9.90;99.90;;;;;;5398984;26;20015;-78
2024/04/12 00:41:11;;;;;;;15.07;5.57;;;9.90;99.90;;;;;;5398465;26;20007;-79
2024/04/12 00:43:45;;;;;;;;;;;9.90;99.90;;;;;;5394878;26;20047;-79
2024/04/12 00:46:24;;;;;;;11.70;5.72;;;9.80;99.90;;;;;;5395482;26;19932;-79
2024/04/12 00:48:52;;;;;;;8.70;5.03;;;9.80;99.90;;;;;;5397464;26;20007;-78
2024/04/12 00:51:19;;;;;;;8.68;5.07;;;10.00;99.90;;;;;;5393775;26;20055;-79
2024/04/12 00:53:46;;;;;;;12.02;4.93;;;10.00;99.90;;;;;;5382627;26;20012;-79
2024/04/12 00:56:13;;;;;;;10.77;4.85;;;9.90;99.90;;;;;;5395701;26;20087;-79
2024/04/12 00:58:41;;;;;;;12.77;5.05;;;10.00;99.90;;;;;;5396521;26;20008;-79
2024/04/12 01:01:17;;;;;;;19.25;5.10;;;10.00;99.90;;;;;;5385396;26;20004;-79
2024/04/12 01:03:47;;;;;;;12.93;5.20;;;9.90;99.90;;;;;;5389735;26;20387;-79
2024/04/12 01:06:24;;;;;;;11.73;4.82;;;9.70;99.90;;;;;;5385738;26;20014;-79
2024/04/12 01:08:51;;;;;;;8.25;4.65;;;9.80;99.90;;;;;;5398297;26;20011;-79
2024/04/12 01:11:21;;;;;;;11.48;5.13;;;9.90;99.90;;;;;;5395469;26;20003;-79
2024/04/12 01:13:49;;;;;;;14.02;4.85;;;9.60;99.90;;;;;;5393709;26;20022;-79
2024/04/12 01:16:16;;;;;;;13.48;4.55;;;9.50;99.90;;;;;;5391057;26;20035;-78
2024/04/12 01:18:42;;;;;;;7.70;4.68;;;9.50;99.90;;;;;;5394691;26;20054;-78
2024/04/12 01:21:11;;;;;;;11.80;5.30;;;9.40;99.90;;;;;;5396105;26;20003;-78
2024/04/12 01:23:42;;;;;;;9.70;5.72;;;9.40;99.90;;;;;;5392717;26;20008;-79
2024/04/12 01:26:11;;;;;;;16.77;5.75;;;9.30;99.90;;;;;;5393590;26;20000;-79
2024/04/12 01:28:38;;;;;;;17.85;6.78;;;9.20;99.90;;;;;;5400884;26;20075;-78
2024/04/12 01:31:05;;;;;;;12.10;4.82;;;9.20;99.90;;;;;;5391264;26;20000;-79
2024/04/12 01:33:33;;;;;;;13.55;5.40;;;9.10;99.90;;;;;;5389838;26;20007;-79
2024/04/12 01:36:05;;;;;;;10.23;5.18;;;9.10;99.90;;;;;;5385241;26;20354;-78
2024/04/12 01:38:36;;;;;;;11.15;4.85;;;9.00;99.90;;;;;;5393541;26;20472;-79
2024/04/12 01:41:05;;;;;;;11.93;4.57;;;8.90;99.90;;;;;;5394490;26;20019;-79
2024/04/12 01:43:35;;;;;;;8.32;4.45;;;9.00;99.90;;;;;;5425393;26;19996;-79
2024/04/12 01:46:07;;;;;;;20.08;5.15;;;9.00;99.90;;;;;;5398233;26;20024;-78
2024/04/12 01:48:34;;;;;;;11.13;4.82;;;8.90;99.90;;;;;;5390901;26;20007;-78
2024/04/12 01:51:03;;;;;;;14.98;4.93;;;8.90;99.90;;;;;;5393147;26;20014;-78
2024/04/12 01:53:38;;;;;;;14.35;5.40;;;8.80;99.90;;;;;;5392977;26;20014;-79
2024/04/12 01:56:04;;;;;;;13.20;5.03;;;9.00;99.90;;;;;;5396063;26;20000;-78
2024/04/12 01:58:31;;;;;;;17.17;5.03;;;8.90;99.90;;;;;;5396129;26;20016;-79
2024/04/12 02:00:57;;;;;;;16.90;4.80;;;8.80;99.90;;;;;;5393626;26;20330;-78
2024/04/12 02:03:29;;;;;;;9.02;4.78;;;8.60;99.90;;;;;;5384380;26;20098;-79
2024/04/12 02:05:56;;;;;;;13.95;5.50;;;8.90;99.90;;;;;;5383849;26;20068;-78
2024/04/12 02:08:23;;;;;;;23.45;6.80;;;8.90;99.90;;;;;;5386520;26;20552;-79
2024/04/12 02:10:50;;;;;;;16.30;5.43;;;9.00;99.90;;;;;;5392902;26;20000;-79
2024/04/12 02:13:20;;;;;;;12.23;5.93;;;9.00;99.90;;;;;;5395673;26;19992;-79
2024/04/12 02:15:51;;;;;;;12.32;5.57;;;8.90;99.90;;;;;;5394614;26;19999;-79
2024/04/12 02:18:19;;;;;;;9.23;4.85;;;8.90;99.90;;;;;;5386727;26;20000;-79
2024/04/12 02:20:46;;;;;;;10.77;4.88;;;8.70;99.90;;;;;;5393235;26;20000;-79
2024/04/12 02:23:16;;;;;;;9.25;4.95;;;8.80;99.90;;;;;;5421012;26;20019;-79
2024/04/12 02:25:43;;;;;;;8.17;4.70;;;8.70;99.90;;;;;;5388805;26;20045;-79
2024/04/12 02:28:14;;;;;;;11.10;4.85;;;8.70;99.90;;;;;;5397218;26;20004;-79
2024/04/12 02:30:53;;;;;;;;;;;8.80;99.90;;;;;;5431744;26;20015;-79
2024/04/12 02:33:19;;;;;;;13.93;4.82;;;8.70;99.90;;;;;;5392722;26;19932;-78
2024/04/12 02:35:45;;;;;;;15.20;5.30;;;8.70;99.90;;;;;;5391111;26;20004;-78
2024/04/12 02:38:15;;;;;;;10.77;5.00;;;8.70;99.90;;;;;;5400284;26;19992;-79
2024/04/12 02:40:45;;;;;;;19.52;5.13;;;8.50;99.90;;;;;;5381691;26;20011;-79
2024/04/12 02:43:15;;;;;;;;;;;8.40;99.90;;;;;;5396418;26;20007;-79
2024/04/12 02:45:54;;;;;;;9.88;4.70;;;8.60;99.90;;;;;;5398239;26;20630;-79
2024/04/12 02:48:20;;;;;;;9.18;5.03;;;8.50;99.90;;;;;;5386372;26;20044;-78
2024/04/12 02:50:53;;;;;;;13.15;4.75;;;8.60;99.90;;;;;;5392306;26;20457;-79
2024/04/12 02:53:19;;;;;;;9.23;4.90;;;8.40;99.90;;;;;;5387771;26;20055;-78
2024/04/12 02:55:47;;;;;;;8.45;4.32;;;8.20;99.90;;;;;;5395371;26;20011;-79
2024/04/12 02:58:13;;;;;;;11.38;5.57;;;8.30;99.90;;;;;;5396877;26;20465;-79
2024/04/12 03:00:39;;;;;;;12.77;5.32;;;8.30;99.90;;;;;;5394936;26;20012;-78
2024/04/12 03:03:05;;;;;;;11.02;4.57;;;8.50;99.90;;;;;;5392273;26;20015;-79
2024/04/12 03:05:32;;;;;;;8.65;4.88;;;8.40;99.90;;;;;;5396428;26;20066;-79
2024/04/12 03:08:00;;;;;;;20.77;4.90;;;8.30;99.90;;;;;;5398929;26;20000;-78
2024/04/12 03:10:32;;;;;;;11.80;5.40;;;8.20;99.90;;;;;;5391025;26;20000;-78
2024/04/12 03:13:00;;;;;;;10.48;4.53;;;8.40;99.90;;;;;;5388377;26;20003;-79
2024/04/12 03:15:27;;;;;;;14.15;4.97;;;8.50;99.90;;;;;;5399231;26;20000;-79
2024/04/12 03:17:52;;;;;;;9.95;4.25;;;8.20;99.90;;;;;;5425999;26;20000;-78
2024/04/12 03:20:20;;;;;;;15.20;5.15;;;8.20;99.90;;;;;;5385751;26;20047;-78
2024/04/12 03:22:46;;;;;;;12.50;5.30;;;8.10;99.90;;;;;;5408209;26;20028;-78
2024/04/12 03:25:14;;;;;;;11.85;5.47;;;8.20;99.90;;;;;;5386626;26;20015;-79
2024/04/12 03:27:42;;;;;;;17.83;7.25;;;8.30;99.90;;;;;;5393458;26;20000;-78
2024/04/12 03:30:13;;;;;;;14.98;6.22;;;8.40;99.90;;;;;;5396461;26;20000;-79
2024/04/12 03:32:46;;;;;;;18.55;7.82;;;8.30;99.90;;;;;;5395350;26;20000;-78
2024/04/12 03:35:13;;;;;;;12.13;6.55;;;8.20;99.90;;;;;;5404868;26;20014;-79
2024/04/12 03:37:39;;;;;;;22.10;7.50;;;8.50;99.90;;;;;;5395157;26;20048;-79
2024/04/12 03:40:15;;;;;;;16.13;6.95;;;8.60;99.90;;;;;;5399895;26;20007;-79
2024/04/12 03:42:42;;;;;;;23.55;7.97;;;8.30;99.90;;;;;;5379987;26;20004;-78
2024/04/12 03:45:12;;;;;;;26.40;7.00;;;8.30;99.90;;;;;;5398506;26;20070;-79
2024/04/12 03:47:39;;;;;;;16.20;6.75;;;8.30;99.90;;;;;;5398815;26;20000;-79
2024/04/12 03:50:13;;;;;;;21.35;6.07;;;8.30;99.90;;;;;;5394208;26;20331;-79
2024/04/12 03:52:44;;;;;;;19.45;7.68;;;8.40;99.90;;;;;;5400177;26;20012;-79
2024/04/12 03:55:10;;;;;;;19.10;7.75;;;8.60;99.90;;;;;;5383773;26;20457;-79
2024/04/12 03:57:39;;;;;;;19.73;6.90;;;8.60;99.90;;;;;;5390971;26;19999;-78
2024/04/12 04:00:12;;;;;;;22.38;7.55;;;8.50;99.90;;;;;;5396850;26;20008;-78
2024/04/12 04:02:39;;;;;;;22.13;7.60;;;8.40;99.90;;;;;;5392634;26;20019;-78
2024/04/12 04:05:14;;;;;;;15.95;7.97;;;8.70;99.90;;;;;;5390105;26;20015;-79
2024/04/12 04:07:47;;;;;;;16.80;7.18;;;8.60;99.90;;;;;;5403020;26;20004;-79
2024/04/12 04:10:20;;;;;;;22.25;8.52;;;8.50;99.90;;;;;;5421035;26;20020;-78
2024/04/12 04:12:49;;;;;;;27.60;7.13;;;8.70;99.90;;;;;;5392845;26;19999;-78
2024/04/12 04:15:15;;;;;;;20.13;8.43;;;8.60;99.90;;;;;;5404626;26;20577;-79
2024/04/12 04:17:47;;;;;;;15.13;7.35;;;8.60;99.90;;;;;;5400872;26;20004;-78
2024/04/12 04:20:14;;;;;;;16.15;7.32;;;8.50;99.90;;;;;;5397344;26;20004;-79
2024/04/12 04:22:40;;;;;;;15.00;6.10;;;8.50;99.90;;;;;;5392216;26;20019;-79
2024/04/12 04:25:10;;;;;;;15.63;7.03;;;8.50;99.90;;;;;;5386727;26;20085;-79
2024/04/12 04:27:36;;;;;;;18.50;6.40;;;8.50;99.90;;;;;;5386548;26;20012;-78
2024/04/12 04:30:03;;;;;;;11.63;6.25;;;8.40;99.90;;;;;;5408346;26;20415;-78
2024/04/12 04:32:28;;;;;;;12.02;6.80;;;8.30;99.90;;;;;;5394352;26;19996;-79
2024/04/12 04:35:04;;;;;;;11.52;6.38;;;8.50;99.90;;;;;;5397153;26;20038;-78
2024/04/12 04:37:31;;;;;;;15.75;6.90;;;8.70;99.90;;;;;;5402021;26;20051;-79
2024/04/12 04:39:58;;;;;;;21.17;7.25;;;8.70;99.90;;;;;;5393730;26;20075;-78
2024/04/12 04:42:24;;;;;;;16.70;6.30;;;8.60;99.90;;;;;;5394649;26;20000;-78
2024/04/12 04:44:50;;;;;;;19.88;7.18;;;8.50;99.90;;;;;;5427748;26;20004;-78
2024/04/12 04:47:17;;;;;;;24.15;7.20;;;8.50;99.90;;;;;;5399212;26;20015;-79
2024/04/12 04:49:43;;;;;;;10.93;6.38;;;8.50;99.90;;;;;;5399116;26;20429;-78
2024/04/12 04:52:08;;;;;;;15.05;6.45;;;8.30;99.90;;;;;;5404075;26;20083;-79
2024/04/12 04:54:36;;;;;;;17.10;7.65;;;8.20;99.90;;;;;;5396915;26;19996;-79
2024/04/12 04:57:02;;;;;;;12.13;6.90;;;8.20;99.90;;;;;;5385306;26;20018;-79
2024/04/12 04:59:32;;;;;;;16.50;7.32;;;8.30;99.90;;;;;;5384471;26;20346;-78
2024/04/12 05:02:00;;;;;;;17.40;7.13;;;8.20;99.90;;;;;;5427709;26;20427;-78
2024/04/12 05:04:31;;;;;;;13.07;6.25;;;8.50;99.90;;;;;;5394905;26;20004;-79
2024/04/12 05:06:58;;;;;;;14.25;6.28;;;8.30;99.90;;;;;;5420020;26;20011;-79
2024/04/12 05:09:27;;;;;;;11.45;5.82;;;8.30;99.90;;;;;;5387785;26;20031;-78
2024/04/12 05:11:53;;;;;;;15.60;6.28;;;8.40;99.90;;;;;;5396514;26;20003;-79
2024/04/12 05:17:03;;;;;;;12.50;5.93;;;8.20;99.90;;;;;;5394244;26;20077;-79
2024/04/12 05:19:31;;;;;;;20.27;5.85;;;8.20;99.90;;;;;;5401783;26;20068;-79
2024/04/12 05:21:59;;;;;;;10.32;5.57;;;8.40;99.90;;;;;;5396253;26;20010;-79
2024/04/12 05:24:25;;;;;;;17.08;5.82;;;8.30;99.90;;;;;;5398944;26;20011;-79
2024/04/12 05:27:01;;;;;;;14.23;5.72;;;8.20;99.90;;;;;;5403717;26;20004;-78
2024/04/12 05:29:28;;;;;;;10.63;6.45;;;8.40;99.90;;;;;;5397939;26;20077;-79
2024/04/12 05:31:56;;;;;;;13.75;6.50;;;8.70;99.90;;;;;;5395844;26;19995;-79
2024/04/12 05:34:28;;;;;;;13.65;6.25;;;8.70;99.90;;;;;;5397187;26;20338;-79
2024/04/12 05:37:03;;;;;;;14.57;6.60;;;8.70;99.90;;;;;;5397503;26;20004;-78
2024/04/12 05:39:35;;;;;;;21.48;6.22;;;8.60;99.90;;;;;;5418564;26;20393;-79
2024/04/12 05:42:06;;;;;;;11.90;6.10;;;8.80;99.90;;;;;;5422619;26;20014;-79
2024/04/12 05:44:33;;;;;;;19.70;6.53;;;8.70;99.90;;;;;;5417106;26;20411;-79
2024/04/12 05:47:00;;;;;;;14.50;5.90;;;8.90;99.90;;;;;;5431517;26;20464;-79
2024/04/12 05:49:26;;;;;;;16.77;5.93;;;9.20;99.90;;;;;;5398403;26;20000;-79
2024/04/12 05:51:55;;;;;;;14.30;6.18;;;9.20;99.90;;;;;;5396594;26;20015;-79
2024/04/12 05:54:20;;;;;;;12.15;6.35;;;9.10;99.90;;;;;;5393984;26;20000;-79
2024/04/12 05:56:47;;;;;;;10.60;6.03;;;9.10;99.90;;;;;;5395464;26;20004;-79
2024/04/12 05:59:16;;;;;;;11.90;5.97;;;9.10;99.90;;;;;;5393411;26;20068;-79
2024/04/12 06:01:46;;;;;;;14.10;6.55;;;9.00;99.90;;;;;;5397986;26;20382;-79
2024/04/12 06:04:14;;;;;;;15.27;6.60;;;9.00;99.90;;;;;;5397502;26;20086;-78
2024/04/12 06:06:42;;;;;;;15.00;6.53;;;9.30;99.90;;;;;;5403212;26;20011;-79
2024/04/12 06:09:21;;;;;;;14.35;6.72;;;9.40;99.90;;;;;;5393211;26;20093;-79
2024/04/12 06:11:51;;;;;;;18.40;8.05;;;9.60;99.90;;;;;;5393861;26;20346;-79
2024/04/12 06:14:24;;;;;;;14.85;7.28;;;9.50;99.90;;;;;;5389175;26;19996;-80
2024/04/12 06:16:55;;;;;;;12.52;6.28;;;9.60;99.90;;;;;;5397394;26;20019;-79
2024/04/12 06:19:21;;;;;;;16.50;7.05;;;9.50;99.90;;;;;;5404996;26;20010;-79
2024/04/12 06:21:48;;;;;;;19.85;7.45;;;9.60;99.90;;;;;;5397481;26;20003;-79
2024/04/12 06:24:29;;;;;;;19.83;7.95;;;9.70;99.90;;;;;;5395417;26;19999;-77
2024/04/12 06:26:58;;;;;;;;;;;9.80;99.90;;;;;;5389142;26;20011;-77
2024/04/12 06:29:26;;;;;;;21.98;7.53;;;10.10;99.90;;;;;;5390715;26;19931;-77
2024/04/12 06:31:56;;;;;;;14.85;6.75;;;10.20;99.90;;;;;;5423214;26;20012;-77
2024/04/12 06:34:22;;;;;;;19.00;6.93;;;10.30;99.90;;;;;;5431345;26;20091;-78
2024/04/12 06:36:56;;;;;;;18.35;7.40;;;10.40;99.90;;;;;;5398204;26;20000;-77
2024/04/12 06:39:26;;;;;;;14.20;7.00;;;10.30;99.90;;;;;;5393258;26;20484;-77
2024/04/12 06:41:57;;;;;;;19.75;7.60;;;10.30;99.90;;;;;;5388878;26;20078;-77
2024/04/12 06:44:24;;;;;;;20.17;7.65;;;10.40;99.90;;;;;;5421074;26;19995;-77
2024/04/12 06:46:51;;;;;;;20.05;7.28;;;10.40;99.90;;;;;;5389229;26;20011;-78
2024/04/12 06:49:19;;;;;;;23.10;7.00;;;10.30;99.90;;;;;;5400983;26;20043;-77
2024/04/12 06:54:36;;;;;;;18.58;8.15;;;10.50;99.90;;;;;;5396253;26;20010;-77
2024/04/12 06:57:03;;;;;;;15.50;7.03;;;10.50;99.90;;;;;;5389261;26;20081;-77
2024/04/12 06:59:35;;;;;;;16.05;6.53;;;10.50;99.90;;;;;;5387730;26;20011;-77
2024/04/12 07:02:04;;;;;;;18.25;7.35;;;10.60;99.90;;;;;;5392434;26;20456;-76
2024/04/12 07:04:30;;;;;;;14.27;7.07;;;10.60;99.90;;;;;;5396624;26;20001;-77
2024/04/12 07:06:58;;;;;;;15.98;7.38;;;10.80;99.90;;;;;;5396423;26;20043;-77
2024/04/12 07:09:24;;;;;;;14.10;7.18;;;10.90;99.90;;;;;;5394442;26;20007;-77
2024/04/12 07:11:51;;;;;;;16.77;7.00;;;11.00;99.90;;;;;;5395118;26;20018;-77
2024/04/12 07:14:23;;;;;;;14.27;7.25;;;11.20;99.90;;;;;;5399482;26;19996;-77
2024/04/12 07:16:49;;;;;;;10.55;6.43;;;11.40;99.90;;;;;;5395663;26;20036;-77
2024/04/12 07:19:18;;;;;;;11.65;6.05;;;11.50;99.90;;;;;;5396297;26;20084;-79
2024/04/12 07:21:44;;;;;;;13.02;6.35;;;11.60;99.90;;;;;;5393454;26;20027;-79
2024/04/12 07:24:15;;;;;;;12.13;6.85;;;11.70;99.90;;;;;;5397105;26;20018;-79
2024/04/12 07:26:41;;;;;;;16.13;7.15;;;11.80;99.90;;;;;;5422481;26;20003;-79
2024/04/12 07:29:07;;;;;;;17.55;7.30;;;11.90;99.90;;;;;;5386587;26;20000;-79
2024/04/12 07:31:36;;;;;;;14.65;6.40;;;12.00;99.90;;;;;;5402348;26;20027;-79
2024/04/12 07:34:02;;;;;;;12.65;6.45;;;12.10;99.90;;;;;;5395837;26;20012;-79
2024/04/12 07:36:32;;;;;;;15.98;6.30;;;12.10;99.90;;;;;;5398312;26;20036;-79
2024/04/12 07:39:07;;;;;;;13.10;7.70;;;12.10;99.90;;;;;;5397519;26;20011;-79
2024/04/12 07:41:43;;;;;;;11.30;6.78;;;12.10;99.90;;;;;;5395079;26;20390;-79
2024/04/12 07:44:12;;;;;;;16.48;6.90;;;12.20;99.90;;;;;;5396560;26;20076;-79
2024/04/12 07:46:48;;;;;;;23.05;7.40;;;12.30;99.90;;;;;;5405093;26;19999;-79
2024/04/12 07:49:18;;;;;;;15.68;7.32;;;12.30;99.90;;;;;;5401101;26;20007;-79
2024/04/12 07:51:47;;;;;;;15.03;8.23;;;12.50;99.90;;;;;;5400025;26;20352;-79
2024/04/12 07:54:13;;;;;;;18.50;7.15;;;12.50;99.90;;;;;;5400830;26;20000;-79
2024/04/12 07:56:44;;;;;;;12.57;6.90;;;12.60;99.90;;;;;;5396961;26;20010;-79
2024/04/12 07:59:13;;;;;;;18.27;8.27;;;12.70;99.90;;;;;;5387870;26;20008;-79
2024/04/12 08:01:47;;;;;;;21.15;7.50;;;12.80;99.90;;;;;;5383929;26;20073;-79
2024/04/12 08:04:36;;;;;;;17.52;7.60;;;12.90;99.90;;;;;;5398552;26;20057;-79
2024/04/12 08:07:13;;;;;;;19.60;7.60;;;13.10;99.90;;;;;;5404419;26;20000;-79
2024/04/12 08:09:46;;;;;;;17.38;8.20;;;13.30;99.90;;;;;;5395611;26;20019;-79
2024/04/12 08:12:17;;;;;;;18.02;8.35;;;13.60;99.90;;;;;;5400609;26;20784;-79
2024/04/12 08:14:54;;;;;;;17.88;7.57;;;13.90;99.90;;;;;;5427403;26;20008;-79
2024/04/12 08:17:25;;;;;;;15.25;7.90;;;14.10;99.90;;;;;;5401297;26;20080;-79
2024/04/12 08:19:57;;;;;;;19.63;8.23;;;14.20;99.90;;;;;;5394496;26;20008;-79
2024/04/12 08:22:26;;;;;;;16.77;8.05;;;14.30;99.90;;;;;;5398183;26;20000;-79
2024/04/12 08:24:53;;;;;;;13.10;7.55;;;14.60;99.90;;;;;;5434481;26;20460;-80
2024/04/12 08:27:19;;;;;;;15.70;8.10;;;14.60;99.90;;;;;;5399875;26;20004;-80
2024/04/12 08:29:48;;;;;;;18.88;9.60;;;14.60;99.90;;;;;;5423778;26;20000;-79
2024/04/12 08:32:14;;;;;;;17.83;8.50;;;14.80;99.90;;;;;;5413688;26;19996;-79
2024/04/12 08:34:44;;;;;;;16.38;9.07;;;14.90;99.90;;;;;;5396146;26;19999;-79
2024/04/12 08:37:13;;;;;;;16.70;8.80;;;15.10;99.90;;;;;;5399017;26;20018;-79
2024/04/12 08:39:53;;;;;;;15.52;8.40;;;15.30;99.90;;;;;;5397597;26;20004;-79
2024/04/12 08:42:19;;;;;;;17.10;8.30;;;15.30;99.90;;;;;;5397234;26;20044;-79
2024/04/12 08:44:47;;;;;;;21.58;8.57;;;15.40;99.90;;;;;;5398943;26;19996;-79
2024/04/12 08:47:16;;;;;;;16.95;8.90;;;15.60;99.90;;;;;;5384410;26;20036;-79
2024/04/12 08:49:51;;;;;;;12.25;8.05;;;15.70;99.90;;;;;;5389366;26;20000;-80
2024/04/12 08:52:30;;;;;;;17.98;9.02;;;15.90;99.90;;;;;;5395750;26;20010;-79
2024/04/12 08:54:59;;;;;;;15.93;7.72;;;15.90;99.90;;;;;;5403043;26;20385;-80
2024/04/12 08:57:25;;;;;;;16.77;7.85;;;15.90;99.90;;;;;;5399940;26;20188;-79
2024/04/12 08:59:51;;;;;;;12.93;8.35;;;16.00;99.90;;;;;;5396428;26;20015;-78
2024/04/12 09:02:34;;;;;;;16.02;9.60;;;16.00;99.90;;;;;;5386879;26;20353;-80
2024/04/12 09:04:59;;;;;;;23.38;10.30;;;16.10;99.90;;;;;;5382947;26;20000;-79
2024/04/12 09:07:26;;;;;;;24.80;9.32;;;16.30;99.90;;;;;;5406162;26;20004;-79
2024/04/12 09:09:56;;;;;;;15.73;9.30;;;16.50;99.90;;;;;;5401234;26;20335;-79
2024/04/12 09:12:24;;;;;;;21.17;8.98;;;16.60;99.90;;;;;;5397082;26;19995;-80
2024/04/12 09:14:59;;;;;;;18.38;8.63;;;16.70;99.90;;;;;;5429125;26;20550;-80
2024/04/12 09:17:28;;;;;;;15.23;8.23;;;16.60;99.90;;;;;;5385739;26;20571;-79
2024/04/12 09:19:54;;;;;;;12.93;8.17;;;16.50;99.90;;;;;;5384871;26;20520;-79
2024/04/12 09:22:21;;;;;;;12.93;7.72;;;16.80;99.90;;;;;;5398644;26;20073;-79
2024/04/12 09:24:55;;;;;;;15.88;8.60;;;17.00;99.90;;;;;;5427788;26;20000;-80
2024/04/12 09:27:24;;;;;;;19.13;8.40;;;17.10;99.90;;;;;;5393845;26;20327;-80
2024/04/12 09:29:55;;;;;;;12.35;7.60;;;17.00;99.90;;;;;;5398756;26;20014;-80
2024/04/12 09:35:13;;;;;;;22.13;8.60;;;17.30;99.90;;;;;;5399626;26;20013;-78
2024/04/12 09:37:42;;;;;;;18.88;9.52;;;17.30;99.90;;;;;;5434190;26;20019;-78
2024/04/12 09:45:45;;;;;;;17.10;8.57;;;17.40;99.90;;;;;;5397472;26;20010;-78
2024/04/12 10:38:09;;;;;;;14.80;7.38;;;18.20;99.90;;;;;;5389460;26;20019;-78
2024/04/12 10:40:36;;;;;;;11.52;6.63;;;18.10;99.90;;;;;;5396304;26;20000;-78
2024/04/12 10:43:04;;;;;;;13.15;6.53;;;18.00;99.90;;;;;;5433892;26;20014;-78
2024/04/12 10:45:30;;;;;;;14.70;6.15;;;18.00;99.90;;;;;;5400766;26;20003;-78
2024/04/12 10:47:56;;;;;;;12.77;6.15;;;18.10;99.90;;;;;;5397439;26;20091;-78
2024/04/12 10:50:23;;;;;;;11.32;6.03;;;18.10;99.90;;;;;;5386329;26;20018;-77
2024/04/12 10:52:51;;;;;;;12.23;5.07;;;18.10;99.90;;;;;;5384706;26;20386;-78
2024/04/12 10:55:19;;;;;;;9.70;4.88;;;18.00;99.90;;;;;;5396492;26;20407;-77
2024/04/12 10:57:48;;;;;;;15.50;7.07;;;17.90;99.90;;;;;;5391203;26;19996;-78
2024/04/12 11:00:15;;;;;;;12.45;6.22;;;17.80;99.90;;;;;;5391934;26;20472;-78
2024/04/12 11:02:46;;;;;;;14.07;6.78;;;17.70;99.90;;;;;;5399267;26;20521;-78
2024/04/12 11:07:54;;;;;;;11.15;5.57;;;18.00;99.90;;;;;;5384290;26;20022;-77
2024/04/12 11:10:24;;;;;;;15.20;6.80;;;17.90;99.90;;;;;;5387553;26;20022;-78
2024/04/12 11:13:10;;;;;;;;;;;17.80;99.40;;;;;;5397535;26;20003;-78
2024/04/12 11:31:52;;;;;;;11.02;5.65;;;18.30;99.40;;;;;;5393269;26;20020;-80
2024/04/12 11:34:25;;;;;;;17.30;5.60;;;18.20;99.00;;;;;;5400258;26;20011;-80
2024/04/12 11:36:53;;;;;;;8.48;4.80;;;18.20;99.10;;;;;;5391213;26;19997;-80
2024/04/12 11:39:25;;;;;;;11.80;5.28;;;18.40;99.10;;;;;;5385391;26;20063;-80
2024/04/12 11:41:52;;;;;;;9.27;5.65;;;18.60;98.70;;;;;;5396150;26;20042;-78
2024/04/12 11:44:18;;;;;;;11.30;5.07;;;18.60;97.70;;;;;;5430191;26;20012;-78
2024/04/12 11:46:48;;;;;;;9.18;5.38;;;18.60;98.40;;;;;;5395401;26;20003;-78
2024/04/12 11:49:16;;;;;;;;;;;18.70;97.50;;;;;;5406131;26;20003;-79
2024/04/12 11:51:42;;;;;;;11.80;5.32;;;18.70;96.70;;;;;;5395852;26;20287;-78
2024/04/12 11:54:13;;;;;;;13.57;5.78;;;18.50;97.00;;;;;;5404625;26;20023;-78
2024/04/12 11:56:39;;;;;;;16.20;5.47;;;18.50;97.20;;;;;;5407932;26;20418;-78
2024/04/12 11:59:09;;;;;;;10.15;4.80;;;18.30;98.10;;;;;;5410473;26;20004;-78
2024/04/12 12:01:37;;;;;;;;;;;18.40;97.80;;;;;;5426240;26;19991;-78
2024/04/12 12:04:07;;;;;;;7.80;5.13;;;18.40;97.80;;;;;;5406483;26;20346;-78
2024/04/12 12:06:33;;;;;;;7.05;5.05;;;18.50;96.80;;;;;;5386043;26;20001;-79
2024/04/12 12:08:59;;;;;;;10.27;4.53;;;18.40;96.20;;;;;;5387479;26;20091;-78
2024/04/12 12:11:24;;;;;;;8.02;5.28;;;18.30;96.10;;;;;;5395783;26;20000;-78
2024/04/12 12:13:50;;;;;;;10.90;5.05;;;18.00;98.00;;;;;;5399533;26;20384;-78
2024/04/12 12:16:15;;;;;;;11.13;5.53;;;17.80;96.50;;;;;;5395390;26;20012;-78
2024/04/12 12:18:42;;;;;;;11.88;4.97;;;17.70;96.20;;;;;;5392780;26;20019;-78
2024/04/12 12:21:07;;;;;;;15.77;5.15;;;17.60;97.20;;;;;;5402644;26;20007;-78
2024/04/12 12:23:34;;;;;;;10.05;5.32;;;17.50;97.50;;;;;;5404974;26;20738;-77
2024/04/12 12:25:59;;;;;;;16.73;5.47;;;17.40;96.40;;;;;;5406047;26;20000;-78
2024/04/12 12:28:26;;;;;;;13.55;5.25;;;17.30;95.90;;;;;;5398357;26;20011;-78
2024/04/12 12:30:54;;;;;;;14.57;5.43;;;17.30;97.40;;;;;;5392851;26;20008;-78
2024/04/12 12:33:24;;;;;;;8.30;4.95;;;17.40;98.30;;;;;;5406265;26;20076;-78
2024/04/12 12:35:54;;;;;;;7.40;4.55;;;17.60;97.40;;;;;;5404457;26;20456;-78
2024/04/12 12:38:20;;;;;;;11.23;5.00;;;17.60;96.80;;;;;;5397490;26;20019;-78
2024/04/12 12:40:46;;;;;;;19.20;5.20;;;17.70;96.80;;;;;;5420225;26;20000;-78
2024/04/12 12:43:12;;;;;;;8.70;4.97;;;17.60;96.00;;;;;;5400257;26;20007;-78
2024/04/12 12:45:38;;;;;;;9.63;4.78;;;17.60;96.30;;;;;;5394845;26;20458;-78
2024/04/12 12:48:05;;;;;;;9.02;4.55;;;17.60;98.30;;;;;;5389393;26;20014;-78
2024/04/12 12:50:30;;;;;;;16.20;5.53;;;17.70;98.70;;;;;;5392950;26;20003;-78
2024/04/12 12:52:59;;;;;;;22.00;5.38;;;17.70;96.20;;;;;;5401267;26;20010;-78
2024/04/12 12:55:28;;;;;;;14.55;5.70;;;17.70;97.00;;;;;;5410176;26;20016;-78
2024/04/12 12:58:09;;;;;;;13.20;5.70;;;17.90;98.00;;;;;;5409215;26;20076;-78
2024/04/12 13:00:44;;;;;;;8.05;4.50;;;17.70;96.80;;;;;;5404499;26;20484;-78
2024/04/12 13:03:17;;;;;;;6.80;4.20;;;17.60;98.50;;;;;;5397592;26;20004;-78
2024/04/12 13:05:45;;;;;;;10.35;5.18;;;17.60;98.50;;;;;;5404475;26;20008;-78
2024/04/12 13:08:15;;;;;;;12.80;5.75;;;17.60;97.60;;;;;;5399524;26;20000;-77
2024/04/12 13:10:46;;;;;;;14.73;5.95;;;17.50;96.80;;;;;;5394656;26;20008;-78
2024/04/12 13:13:17;;;;;;;8.23;4.97;;;17.50;98.30;;;;;;5405282;26;20534;-78
2024/04/12 13:15:44;;;;;;;11.90;4.85;;;17.60;98.80;;;;;;5390674;26;20000;-78
2024/04/12 13:18:10;;;;;;;16.65;5.55;;;17.70;99.90;;;;;;5388484;26;20418;-80
2024/04/12 13:20:36;;;;;;;12.98;5.50;;;17.70;99.90;;;;;;5388186;26;20054;-80
2024/04/12 13:23:03;;;;;;;10.35;6.22;;;17.70;98.60;;;;;;5394516;26;20018;-80
2024/04/12 13:25:28;;;;;;;13.60;5.65;;;17.70;99.90;;;;;;5437998;26;20003;-80
2024/04/12 13:27:54;;;;;;;11.95;5.63;;;17.70;98.00;;;;;;5424772;26;20038;-80
2024/04/12 13:30:21;;;;;;;11.73;6.15;;;17.90;98.70;;;;;;5399172;26;20081;-81
2024/04/12 13:32:50;;;;;;;19.10;6.07;;;17.70;99.10;;;;;;5399405;26;20449;-81
2024/04/12 13:35:21;;;;;;;9.38;5.63;;;17.60;98.90;;;;;;5394422;26;20000;-81
2024/04/12 13:37:46;;;;;;;;;;;17.70;98.50;;;;;;5403670;26;20341;-81
2024/04/12 13:40:18;;;;;;;17.45;5.80;;;17.70;97.60;;;;;;5397110;26;19926;-80
2024/04/12 13:42:49;;;;;;;9.90;5.40;;;17.70;98.10;;;;;;5408003;26;19999;-82
2024/04/12 13:50:57;;;;;;;9.13;4.82;;;17.40;98.30;;;;;;5390525;26;20085;-82
2024/04/12 13:53:37;;;;;;;9.40;5.45;;;17.40;99.90;;;;;;5392194;26;20004;-83
2024/04/12 13:58:59;;;;;;;14.45;6.78;;;17.60;98.20;;;;;;5395464;26;20023;-82
2024/04/12 14:01:25;;;;;;;14.85;6.13;;;17.50;97.90;;;;;;5394783;26;20000;-81
2024/04/12 14:04:04;;;;;;;12.32;6.00;;;17.70;97.70;;;;;;5400535;26;20465;-80
2024/04/12 14:06:34;;;;;;;13.10;6.13;;;17.80;98.20;;;;;;5395757;26;20455;-80
2024/04/12 14:09:08;;;;;;;18.17;6.38;;;17.90;98.70;;;;;;5429722;26;20036;-79
2024/04/12 14:11:34;;;;;;;17.17;5.82;;;17.90;98.30;;;;;;5436474;26;19999;-78
2024/04/12 14:14:01;;;;;;;13.30;5.95;;;17.70;98.50;;;;;;5402858;26;20436;-78
2024/04/12 14:16:32;;;;;;;14.23;6.05;;;17.50;99.90;;;;;;5433689;26;20011;-77
2024/04/12 14:18:58;;;;;;;12.43;5.78;;;17.50;99.90;;;;;;5388049;26;20040;-77
2024/04/12 14:21:26;;;;;;;13.35;6.05;;;17.70;99.90;;;;;;5395626;26;20004;-77
2024/04/12 14:23:51;;;;;;;12.65;6.85;;;17.70;98.50;;;;;;5389466;26;20001;-77
2024/04/12 14:26:17;;;;;;;14.85;6.63;;;17.60;99.50;;;;;;5388074;26;20018;-76